Time;durP1;ratioP1;P1;durP2;ratioP2;P2;SDS_P1;SDS_P2;PMS_P1;PMS_P2;Temp;Humidity;BMP_temperature;BMP_pressure;BME280_temperature;BME280_humidity;BME280_pressure;Samples;Min_cycle;Max_cycle;Signal;HPM_P1;HPM_P2
2023/12/07 00:00:29;;;;;;;;;;;21.10;37.70;;;;;;3052026;19;5404;-72
2023/12/07 00:01:34;;;;;;;;;;;21.00;37.50;;;;;;3052581;19;5427;-72
2023/12/07 00:02:34;;;;;;;;;;;21.00;37.60;;;;;;3029847;19;5201;-70
2023/12/07 00:03:35;;;;;;;;;;;21.00;37.40;;;;;;3050453;19;5539;-72
2023/12/07 00:04:36;;;;;;;;;;;21.00;37.70;;;;;;3031279;19;5355;-70
2023/12/07 00:05:36;;;;;;;;;;;21.00;37.70;;;;;;3051346;19;4772;-71
2023/12/07 00:06:37;;;;;;;;;;;21.00;37.70;;;;;;3052557;19;4672;-71
2023/12/07 00:07:37;;;;;;;;;;;21.00;37.60;;;;;;3030669;19;5291;-71
2023/12/07 00:08:38;;;;;;;;;;;21.00;37.60;;;;;;3051412;19;5374;-71
2023/12/07 00:09:39;;;;;;;;;;;21.00;37.60;;;;;;3051646;19;6600;-70
2023/12/07 00:10:40;;;;;;;;;;;20.90;37.70;;;;;;3031540;19;5552;-71
2023/12/07 00:11:40;;;;;;;;;;;20.90;37.50;;;;;;3052323;19;5414;-72
2023/12/07 00:12:41;;;;;;;;;;;20.90;37.60;;;;;;3031849;19;5155;-72
2023/12/07 00:13:42;;;;;;;;;;;20.90;37.60;;;;;;3052644;19;4665;-71
2023/12/07 00:14:42;;;;;;;;;;;21.00;37.80;;;;;;3053250;19;5277;-72
2023/12/07 00:15:43;;;;;;;;;;;20.90;37.60;;;;;;3032219;19;5516;-72
2023/12/07 00:16:44;;;;;;;;;;;20.90;37.60;;;;;;3053795;19;4680;-70
2023/12/07 00:17:45;;;;;;;;;;;20.90;37.70;;;;;;3052932;19;5305;-71
2023/12/07 00:18:46;;;;;;;;;;;20.90;37.60;;;;;;3031891;19;5231;-71
2023/12/07 00:19:47;;;;;;;;;;;20.90;37.60;;;;;;3051908;19;5316;-71
2023/12/07 00:20:48;;;;;;;;;;;20.90;37.50;;;;;;3030794;19;4650;-71
2023/12/07 00:21:48;;;;;;;;;;;20.90;37.80;;;;;;3054203;19;5355;-71
2023/12/07 00:22:49;;;;;;;;;;;20.90;37.40;;;;;;3056858;19;5710;-71
2023/12/07 00:23:50;;;;;;;;;;;20.90;37.80;;;;;;3035606;19;5367;-71
2023/12/07 00:24:50;;;;;;;;;;;20.90;37.60;;;;;;3056874;19;5245;-71
2023/12/07 00:25:51;;;;;;;;;;;20.80;37.70;;;;;;3034881;19;4780;-71
2023/12/07 00:26:52;;;;;;;;;;;20.80;37.60;;;;;;3056187;19;4972;-71
2023/12/07 00:27:52;;;;;;;;;;;20.90;37.70;;;;;;3055696;19;5406;-71
2023/12/07 00:28:53;;;;;;;;;;;20.90;37.70;;;;;;3036033;19;5354;-72
2023/12/07 00:29:54;;;;;;;;;;;20.80;37.60;;;;;;3060091;19;4665;-72
2023/12/07 00:30:56;;;;;;;;;;;20.80;37.70;;;;;;3061012;19;5303;-70
2023/12/07 00:31:56;;;;;;;;;;;20.80;37.70;;;;;;3037768;19;5259;-71
2023/12/07 00:32:57;;;;;;;;;;;20.80;37.60;;;;;;3059809;19;5304;-70
2023/12/07 00:33:58;;;;;;;;;;;20.80;37.70;;;;;;3041947;19;4632;-71
2023/12/07 00:34:59;;;;;;;;;;;20.80;37.60;;;;;;3064517;19;5386;-68
2023/12/07 00:35:59;;;;;;;;;;;20.80;37.70;;;;;;3064501;19;5374;-69
2023/12/07 00:37:00;;;;;;;;;;;20.80;37.70;;;;;;3039760;19;5373;-70
2023/12/07 00:38:00;;;;;;;;;;;20.80;37.70;;;;;;3062561;19;5430;-70
2023/12/07 00:39:03;;;;;;;;;;;20.80;37.80;;;;;;3062459;19;5271;-69
2023/12/07 00:40:05;;;;;;;;;;;20.80;37.70;;;;;;3038818;19;4785;-71
2023/12/07 00:41:06;;;;;;;;;;;20.80;37.80;;;;;;3062864;19;5382;-70
2023/12/07 00:42:06;;;;;;;;;;;20.80;37.80;;;;;;3040106;19;5081;-71
2023/12/07 00:43:07;;;;;;;;;;;20.80;37.70;;;;;;3063620;19;969;-70
2023/12/07 00:44:08;;;;;;;;;;;20.80;37.70;;;;;;3064638;19;5401;-71
2023/12/07 00:45:08;;;;;;;;;;;20.80;38.00;;;;;;3043140;19;5304;-71
2023/12/07 00:46:09;;;;;;;;;;;20.70;37.80;;;;;;3067109;19;5909;-69
2023/12/07 00:47:10;;;;;;;;;;;20.70;37.80;;;;;;3048682;19;4753;-72
2023/12/07 00:48:11;;;;;;;;;;;20.70;37.80;;;;;;3070959;19;5476;-70
2023/12/07 00:49:12;;;;;;;;;;;20.70;37.90;;;;;;3065582;19;5824;-70
2023/12/07 00:50:14;;;;;;;;;;;20.70;37.80;;;;;;3042559;19;5277;-71
2023/12/07 00:51:15;;;;;;;;;;;20.70;37.70;;;;;;3060469;19;949;-74
2023/12/07 00:52:15;;;;;;;;;;;20.70;37.90;;;;;;3062475;19;5227;-72
2023/12/07 00:53:16;;;;;;;;;;;20.70;37.90;;;;;;3043989;19;4766;-74
2023/12/07 00:54:17;;;;;;;;;;;20.70;37.90;;;;;;3057920;19;5318;-72
2023/12/07 00:55:17;;;;;;;;;;;20.70;37.90;;;;;;3031487;19;4857;-74
2023/12/07 00:56:18;;;;;;;;;;;20.70;37.80;;;;;;3054408;19;5495;-73
2023/12/07 00:57:19;;;;;;;;;;;20.70;37.80;;;;;;3055992;19;5393;-74
2023/12/07 00:58:19;;;;;;;;;;;20.70;37.90;;;;;;3032355;19;4870;-74
2023/12/07 00:59:20;;;;;;;;;;;20.70;37.90;;;;;;3053394;19;4810;-74
2023/12/07 01:00:20;;;;;;;;;;;20.70;37.80;;;;;;3054799;19;5207;-73
2023/12/07 01:01:21;;;;;;;;;;;20.70;38.00;;;;;;3031711;19;4849;-74
2023/12/07 01:02:22;;;;;;;;;;;20.70;38.00;;;;;;3051365;19;5285;-73
2023/12/07 01:03:22;;;;;;;;;;;20.60;38.00;;;;;;3031979;19;5356;-73
2023/12/07 01:04:23;;;;;;;;;;;20.60;37.90;;;;;;3053211;19;5612;-74
2023/12/07 01:05:24;;;;;;;;;;;20.60;37.90;;;;;;3052145;19;5286;-75
2023/12/07 01:06:25;;;;;;;;;;;20.60;38.20;;;;;;3031348;19;5245;-75
2023/12/07 01:07:26;;;;;;;;;;;20.60;38.10;;;;;;3050749;19;5409;-75
2023/12/07 01:08:27;;;;;;;;;;;20.60;38.00;;;;;;3052852;19;5333;-73
2023/12/07 01:09:29;;;;;;;;;;;20.60;38.10;;;;;;3030747;19;7382;-74
2023/12/07 01:10:29;;;;;;;;;;;20.60;38.00;;;;;;3052034;19;5826;-74
2023/12/07 01:11:30;;;;;;;;;;;20.60;37.90;;;;;;3032248;19;5415;-75
2023/12/07 01:12:30;;;;;;;;;;;20.60;38.20;;;;;;3051801;19;5488;-75
2023/12/07 01:13:31;;;;;;;;;;;20.60;38.00;;;;;;3051646;19;6384;-74
2023/12/07 01:14:32;;;;;;;;;;;20.60;37.90;;;;;;3030464;19;5784;-74
2023/12/07 01:15:32;;;;;;;;;;;20.60;38.00;;;;;;3051968;19;5552;-74
2023/12/07 01:16:33;;;;;;;;;;;20.60;38.20;;;;;;3031200;19;5419;-75
2023/12/07 01:17:34;;;;;;;;;;;20.50;38.00;;;;;;3052138;19;5195;-74
2023/12/07 01:18:34;;;;;;;;;;;20.50;38.00;;;;;;3052254;19;4663;-74
2023/12/07 01:19:35;;;;;;;;;;;20.60;38.10;;;;;;3029858;19;5409;-74
2023/12/07 01:20:36;;;;;;;;;;;20.50;37.90;;;;;;3051225;19;4846;-73
2023/12/07 01:21:38;;;;;;;;;;;20.50;38.00;;;;;;3052809;19;5403;-74
2023/12/07 01:22:41;;;;;;;;;;;20.60;38.10;;;;;;3030720;19;4794;-74
2023/12/07 01:23:42;;;;;;;;;;;20.50;38.10;;;;;;3052548;19;4778;-74
2023/12/07 01:24:43;;;;;;;;;;;20.50;38.00;;;;;;3030869;19;5333;-73
2023/12/07 01:25:45;;;;;;;;;;;20.50;38.00;;;;;;3052843;19;5425;-74
